createdAt,value
2018-03-25T00:00:04.432Z,89.95
2018-03-25T00:01:04.372Z,90.14
2018-03-25T00:02:04.352Z,89.38
2018-03-25T00:03:04.325Z,90.23
2018-03-25T00:04:04.313Z,90.14
2018-03-25T00:05:04.292Z,89.76
2018-03-25T00:06:04.263Z,90.05
2018-03-25T00:07:04.252Z,90.05
2018-03-25T00:08:04.228Z,90.23
2018-03-25T00:09:04.213Z,89.86
2018-03-25T00:10:04.193Z,90.61
2018-03-25T00:11:04.164Z,90.71
2018-03-25T00:12:04.145Z,90.80
2018-03-25T00:13:04.132Z,90.57
2018-03-25T00:14:04.109Z,90.71
2018-03-25T00:15:04.087Z,90.99
2018-03-25T00:16:04.070Z,91.19
2018-03-25T00:17:04.064Z,90.33
2018-03-25T00:18:04.032Z,90.80
2018-03-25T00:19:04.011Z,90.99
2018-03-25T00:20:03.986Z,90.42
2018-03-25T00:21:03.978Z,90.42
2018-03-25T00:22:03.944Z,90.52
2018-03-25T00:23:03.933Z,90.61
2018-03-25T00:24:03.908Z,90.14
2018-03-25T00:25:03.894Z,90.33
2018-03-25T00:26:03.870Z,90.33
2018-03-25T00:27:03.850Z,90.42
2018-03-25T00:28:03.831Z,90.14
2018-03-25T00:29:03.809Z,90.52
2018-03-25T00:30:03.793Z,90.61
2018-03-25T00:31:03.768Z,90.61
2018-03-25T00:32:03.751Z,90.23
2018-03-25T00:33:03.736Z,90.05
2018-03-25T00:34:03.710Z,90.71
2018-03-25T00:35:03.693Z,90.71
2018-03-25T00:36:03.671Z,91.19
2018-03-25T00:37:03.652Z,91.04
2018-03-25T00:38:03.637Z,90.85
2018-03-25T00:39:03.612Z,90.85
2018-03-25T00:40:03.592Z,91.14
2018-03-25T00:41:03.569Z,91.24
2018-03-25T00:42:03.551Z,90.76
2018-03-25T00:43:03.531Z,91.14
2018-03-25T00:44:03.515Z,91.42
2018-03-25T00:45:03.493Z,91.14
2018-03-25T00:46:03.469Z,91.14
2018-03-25T00:47:03.450Z,90.95
2018-03-25T00:48:03.438Z,91.33
2018-03-25T00:49:03.422Z,91.24
2018-03-25T00:50:03.398Z,90.85
2018-03-25T00:51:03.373Z,91.38
2018-03-25T00:52:03.410Z,91.33
2018-03-25T00:53:03.337Z,90.66
2018-03-25T00:54:03.315Z,91.04
2018-03-25T00:55:03.296Z,91.14
2018-03-25T00:56:03.274Z,90.85
2018-03-25T00:57:03.266Z,91.52
2018-03-25T00:58:03.284Z,91.71
2018-03-25T00:59:03.213Z,91.33
2018-03-25T01:00:03.247Z,91.71
2018-03-25T01:01:03.173Z,92.37
2018-03-25T01:02:03.160Z,92.18
2018-03-25T01:03:03.134Z,92.56
2018-03-25T01:04:03.220Z,92.37
2018-03-25T01:05:03.093Z,91.99
2018-03-25T01:06:03.082Z,92.37
2018-03-25T01:07:03.055Z,92.28
2018-03-25T01:08:03.135Z,92.28
2018-03-25T01:09:03.017Z,92.37
2018-03-25T01:10:03.103Z,91.80
2018-03-25T01:11:02.980Z,91.80
2018-03-25T01:12:03.011Z,91.80
2018-03-25T01:13:02.936Z,91.71
2018-03-25T01:14:02.962Z,91.66
2018-03-25T01:15:02.896Z,91.80
2018-03-25T01:16:03.028Z,91.42
2018-03-25T01:17:02.860Z,91.42
2018-03-25T01:18:02.900Z,91.61
2018-03-25T01:19:02.813Z,91.61
2018-03-25T01:20:02.846Z,91.71
2018-03-25T01:21:02.775Z,92.23
2018-03-25T01:22:02.767Z,92.33
2018-03-25T01:23:02.740Z,93.08
2018-03-25T01:24:02.716Z,92.94
2018-03-25T01:25:02.710Z,92.85
2018-03-25T01:26:02.678Z,92.56
2018-03-25T01:27:02.654Z,92.47
2018-03-25T01:28:02.640Z,92.18
2018-03-25T01:29:02.623Z,91.89
2018-03-25T01:30:02.600Z,92.09
2018-03-25T01:31:02.581Z,91.52
2018-03-25T01:32:02.557Z,91.89
2018-03-25T01:33:02.542Z,91.89
2018-03-25T01:34:02.520Z,91.80
2018-03-25T01:35:02.507Z,92.28
2018-03-25T01:36:02.487Z,92.37
2018-03-25T01:37:02.454Z,92.47
2018-03-25T01:38:02.440Z,92.18
2018-03-25T01:39:02.423Z,91.80
2018-03-25T01:40:02.397Z,92.18
2018-03-25T01:41:02.381Z,92.18
2018-03-25T01:42:02.365Z,92.33
2018-03-25T01:43:02.337Z,92.90
2018-03-25T01:44:02.322Z,93.08
2018-03-25T01:45:02.296Z,92.99
2018-03-25T01:46:02.287Z,93.08
2018-03-25T01:47:02.261Z,92.61
2018-03-25T01:48:02.231Z,93.18
2018-03-25T01:49:02.208Z,92.90
2018-03-25T01:50:02.190Z,93.23
2018-03-25T01:51:02.170Z,92.66
2018-03-25T01:52:02.152Z,92.56
2018-03-25T01:53:02.141Z,92.47
2018-03-25T01:54:02.111Z,92.37
2018-03-25T01:55:02.088Z,92.09
2018-03-25T01:56:02.071Z,92.37
2018-03-25T01:57:02.050Z,92.37
2018-03-25T01:58:02.031Z,92.66
2018-03-25T01:59:02.012Z,92.37
2018-03-25T02:00:01.995Z,92.28
2018-03-25T02:01:01.970Z,92.28
2018-03-25T02:02:01.951Z,92.37
2018-03-25T02:03:01.928Z,92.28
2018-03-25T02:04:01.911Z,92.47
2018-03-25T02:05:01.893Z,92.47
2018-03-25T02:06:01.865Z,92.56
2018-03-25T02:07:01.847Z,92.28
2018-03-25T02:08:01.826Z,92.18
2018-03-25T02:09:01.812Z,92.56
2018-03-25T02:10:01.862Z,92.37
2018-03-25T02:11:01.768Z,92.28
2018-03-25T02:12:01.744Z,92.18
2018-03-25T02:13:01.725Z,92.37
2018-03-25T02:14:01.806Z,92.28
2018-03-25T02:15:01.683Z,92.33
2018-03-25T02:16:01.763Z,91.94
2018-03-25T02:17:01.644Z,92.14
2018-03-25T02:18:01.797Z,91.94
2018-03-25T02:19:01.610Z,92.71
2018-03-25T02:20:01.590Z,92.71
2018-03-25T02:21:01.565Z,92.61
2018-03-25T02:22:01.543Z,92.71
2018-03-25T02:23:01.521Z,92.42
2018-03-25T02:24:01.510Z,92.14
2018-03-25T02:25:01.480Z,92.14
2018-03-25T02:26:01.498Z,92.23
2018-03-25T02:27:01.439Z,92.33
2018-03-25T02:28:01.419Z,91.85
2018-03-25T02:29:01.401Z,92.52
2018-03-25T02:30:01.386Z,92.52
2018-03-25T02:31:01.362Z,92.61
2018-03-25T02:32:01.353Z,92.66
2018-03-25T02:33:01.321Z,92.42
2018-03-25T02:34:01.406Z,92.14
2018-03-25T02:35:01.279Z,92.33
2018-03-25T02:36:01.270Z,92.33
2018-03-25T02:37:01.242Z,92.23
2018-03-25T02:38:01.222Z,92.61
2018-03-25T02:39:01.200Z,92.61
2018-03-25T02:40:01.280Z,92.61
2018-03-25T02:41:01.155Z,92.71
2018-03-25T02:42:01.138Z,92.90
2018-03-25T02:43:01.114Z,92.99
2018-03-25T02:44:01.097Z,93.27
2018-03-25T02:45:01.078Z,92.90
2018-03-25T02:46:01.077Z,93.18
2018-03-25T02:47:01.031Z,92.33
2018-03-25T02:48:01.013Z,92.42
2018-03-25T02:49:00.991Z,93.08
2018-03-25T02:50:01.028Z,92.71
2018-03-25T02:51:00.950Z,92.71
2018-03-25T02:52:00.930Z,92.90
2018-03-25T02:53:00.921Z,92.80
2018-03-25T02:54:00.896Z,92.99
2018-03-25T02:55:00.869Z,93.18
2018-03-25T02:56:00.848Z,93.08
2018-03-25T02:57:00.825Z,92.52
2018-03-25T02:58:00.812Z,93.08
2018-03-25T02:59:00.787Z,92.71
2018-03-25T03:00:00.769Z,93.18
2018-03-25T03:01:00.742Z,93.18
2018-03-25T03:02:00.722Z,93.18
2018-03-25T03:03:00.706Z,93.37
2018-03-25T03:04:00.682Z,92.99
2018-03-25T03:05:00.658Z,93.18
2018-03-25T03:06:00.639Z,93.37
2018-03-25T03:07:00.619Z,92.99
2018-03-25T03:08:00.613Z,93.37
2018-03-25T03:09:00.579Z,93.27
2018-03-25T03:10:00.561Z,93.27
2018-03-25T03:11:00.540Z,93.37
2018-03-25T03:12:00.516Z,92.90
2018-03-25T03:13:00.501Z,92.71
2018-03-25T03:14:00.476Z,93.37
2018-03-25T03:15:00.457Z,93.18
2018-03-25T03:16:00.438Z,93.18
2018-03-25T03:17:00.414Z,92.90
2018-03-25T03:18:00.399Z,92.90
2018-03-25T03:19:00.378Z,92.80
2018-03-25T03:20:00.351Z,93.18
2018-03-25T03:21:00.332Z,92.90
2018-03-25T03:22:00.310Z,93.18
2018-03-25T03:23:00.290Z,93.37
2018-03-25T03:24:00.272Z,93.56
2018-03-25T03:25:00.251Z,93.08
2018-03-25T03:26:00.235Z,92.71
2018-03-25T03:27:00.210Z,93.27
2018-03-25T03:28:00.191Z,92.99
2018-03-25T03:29:00.174Z,93.18
2018-03-25T03:30:00.149Z,92.80
2018-03-25T03:31:00.139Z,92.90
2018-03-25T03:32:00.109Z,92.80
2018-03-25T03:33:00.090Z,92.90
2018-03-25T03:34:00.071Z,93.08
2018-03-25T03:35:00.045Z,93.08
2018-03-25T03:36:00.032Z,92.90
2018-03-25T03:37:00.005Z,92.90
2018-03-25T03:37:59.998Z,93.27
2018-03-25T03:38:59.964Z,93.46
2018-03-25T03:39:59.950Z,92.90
2018-03-25T03:40:59.922Z,92.99
2018-03-25T03:41:59.900Z,93.27
2018-03-25T03:42:59.881Z,92.90
2018-03-25T03:43:59.884Z,93.18
2018-03-25T03:44:59.838Z,93.18
2018-03-25T03:45:59.819Z,93.27
2018-03-25T03:46:59.800Z,92.80
2018-03-25T03:47:59.776Z,93.27
2018-03-25T03:48:59.759Z,92.71
2018-03-25T03:49:59.747Z,93.37
2018-03-25T03:50:59.720Z,93.08
2018-03-25T03:51:59.696Z,93.08
2018-03-25T03:52:59.681Z,92.90
2018-03-25T03:53:59.659Z,93.08
2018-03-25T03:54:59.641Z,93.08
2018-03-25T03:55:59.620Z,92.61
2018-03-25T03:56:59.595Z,92.90
2018-03-25T03:57:59.581Z,93.08
2018-03-25T03:58:59.550Z,93.27
2018-03-25T03:59:59.535Z,93.08
2018-03-25T04:00:59.521Z,93.27
2018-03-25T04:01:59.493Z,93.56
2018-03-25T04:02:59.471Z,94.03
2018-03-25T04:03:59.452Z,93.65
2018-03-25T04:04:59.431Z,94.13
2018-03-25T04:05:59.409Z,94.23
2018-03-25T04:06:59.395Z,94.23
2018-03-25T04:07:59.371Z,93.94
2018-03-25T04:08:59.360Z,94.13
2018-03-25T04:09:59.334Z,94.03
2018-03-25T04:10:59.308Z,93.84
2018-03-25T04:11:59.286Z,93.46
2018-03-25T04:12:59.269Z,93.46
2018-03-25T04:13:59.250Z,92.71
2018-03-25T04:14:59.230Z,93.18
2018-03-25T04:15:59.210Z,93.27
2018-03-25T04:16:59.181Z,93.46
2018-03-25T04:17:59.159Z,94.13
2018-03-25T04:18:59.139Z,94.89
2018-03-25T04:19:59.123Z,94.42
2018-03-25T04:20:59.104Z,94.79
2018-03-25T04:21:59.089Z,94.42
2018-03-25T04:22:59.059Z,94.42
2018-03-25T04:23:59.038Z,94.23
2018-03-25T04:24:59.020Z,94.23
2018-03-25T04:25:59.000Z,93.84
2018-03-25T04:26:58.976Z,94.51
2018-03-25T04:27:58.966Z,94.13
2018-03-25T04:28:58.939Z,94.70
2018-03-25T04:29:58.920Z,94.51
2018-03-25T04:30:58.903Z,94.79
2018-03-25T04:31:58.882Z,94.13
2018-03-25T04:32:58.854Z,94.03
2018-03-25T04:33:58.841Z,94.23
2018-03-25T04:34:58.819Z,94.13
2018-03-25T04:35:58.791Z,93.46
2018-03-25T04:36:58.771Z,92.99
2018-03-25T04:37:58.751Z,93.08
2018-03-25T04:38:58.730Z,93.37
2018-03-25T04:39:58.708Z,93.65
2018-03-25T04:40:58.690Z,93.46
2018-03-25T04:41:58.671Z,93.46
2018-03-25T04:42:58.649Z,93.18
2018-03-25T04:43:58.627Z,93.46
2018-03-25T04:44:58.609Z,93.37
2018-03-25T04:45:58.594Z,93.56
2018-03-25T04:46:58.567Z,93.46
2018-03-25T04:47:58.546Z,93.27
2018-03-25T04:48:58.524Z,93.27
2018-03-25T04:49:58.503Z,93.46
2018-03-25T04:50:58.483Z,93.46
2018-03-25T04:51:58.460Z,93.46
2018-03-25T04:52:58.449Z,93.08
2018-03-25T04:53:58.422Z,93.08
2018-03-25T04:54:58.398Z,93.08
2018-03-25T04:55:58.390Z,93.37
2018-03-25T04:56:58.361Z,93.94
2018-03-25T04:57:58.336Z,94.93
2018-03-25T04:58:58.381Z,94.93
2018-03-25T04:59:58.314Z,95.22
2018-03-25T05:00:58.280Z,94.89
2018-03-25T05:01:58.259Z,95.46
2018-03-25T05:02:58.240Z,95.07
2018-03-25T05:03:58.258Z,94.98
2018-03-25T05:04:58.199Z,94.70
2018-03-25T05:05:58.176Z,94.89
2018-03-25T05:06:58.151Z,94.70
2018-03-25T05:07:58.140Z,94.42
2018-03-25T05:08:58.118Z,94.42
2018-03-25T05:09:58.088Z,93.46
2018-03-25T05:10:58.072Z,93.65
2018-03-25T05:11:58.049Z,93.75
2018-03-25T05:12:58.030Z,93.37
2018-03-25T05:13:58.010Z,92.94
2018-03-25T05:14:57.986Z,93.04
2018-03-25T05:15:57.971Z,93.13
2018-03-25T05:16:57.946Z,93.23
2018-03-25T05:17:57.929Z,93.04
2018-03-25T05:18:57.910Z,92.66
2018-03-25T05:19:57.885Z,93.13
2018-03-25T05:20:57.872Z,92.94
2018-03-25T05:21:57.850Z,93.04
2018-03-25T05:22:57.830Z,92.94
2018-03-25T05:23:57.808Z,93.23
2018-03-25T05:24:57.785Z,93.23
2018-03-25T05:25:57.759Z,93.13
2018-03-25T05:26:57.740Z,92.66
2018-03-25T05:27:57.764Z,92.75
2018-03-25T05:28:57.700Z,93.13
2018-03-25T05:29:57.683Z,92.94
2018-03-25T05:30:57.660Z,92.94
2018-03-25T05:31:57.638Z,93.23
2018-03-25T05:32:57.621Z,92.80
2018-03-25T05:33:57.601Z,93.27
2018-03-25T05:34:57.590Z,92.80
2018-03-25T05:35:57.561Z,92.80
2018-03-25T05:36:57.553Z,93.37
2018-03-25T05:37:57.514Z,93.27
2018-03-25T05:38:57.548Z,93.13
2018-03-25T05:39:57.470Z,93.23
2018-03-25T05:40:57.450Z,93.13
2018-03-25T05:41:57.431Z,93.04
2018-03-25T05:42:57.411Z,92.75
2018-03-25T05:43:57.390Z,92.47
2018-03-25T05:44:57.370Z,92.47
2018-03-25T05:45:57.348Z,93.13
2018-03-25T05:46:57.326Z,92.28
2018-03-25T05:47:57.313Z,93.13
2018-03-25T05:48:57.289Z,92.85
2018-03-25T05:49:57.269Z,92.71
2018-03-25T05:50:57.251Z,92.99
2018-03-25T05:51:57.230Z,92.80
2018-03-25T05:52:57.206Z,93.27
2018-03-25T05:53:57.231Z,93.37
2018-03-25T05:54:57.171Z,93.08
2018-03-25T05:55:57.151Z,93.51
2018-03-25T05:56:57.128Z,93.23
2018-03-25T05:57:57.109Z,93.23
2018-03-25T05:58:57.085Z,93.51
2018-03-25T05:59:57.065Z,92.94
2018-03-25T06:00:57.042Z,93.13
2018-03-25T06:01:57.056Z,93.13
2018-03-25T06:02:57.000Z,92.75
2018-03-25T06:03:56.988Z,92.56
2018-03-25T06:04:56.966Z,92.75
2018-03-25T06:05:56.942Z,93.32
2018-03-25T06:06:56.919Z,92.94
2018-03-25T06:07:56.899Z,92.94
2018-03-25T06:08:56.880Z,92.85
2018-03-25T06:09:56.860Z,93.04
2018-03-25T06:10:56.856Z,93.32
2018-03-25T06:11:56.818Z,92.85
2018-03-25T06:12:56.800Z,93.04
2018-03-25T06:13:56.779Z,92.75
2018-03-25T06:14:56.808Z,92.75
2018-03-25T06:15:56.853Z,93.04
2018-03-25T06:16:56.722Z,92.75
2018-03-25T06:17:56.700Z,92.56
2018-03-25T06:18:56.727Z,92.94
2018-03-25T06:19:56.656Z,92.75
2018-03-25T06:20:56.637Z,92.37
2018-03-25T06:21:56.619Z,92.37
2018-03-25T06:22:56.645Z,92.37
2018-03-25T06:23:56.579Z,92.37
2018-03-25T06:24:56.557Z,92.37
2018-03-25T06:25:56.540Z,92.37
2018-03-25T06:26:56.566Z,92.37
2018-03-25T06:27:56.499Z,92.28
2018-03-25T06:28:56.486Z,92.47
2018-03-25T06:29:56.452Z,92.47
2018-03-25T06:30:56.435Z,92.56
2018-03-25T06:31:56.420Z,92.37
2018-03-25T06:32:56.397Z,92.85
2018-03-25T06:33:56.370Z,93.13
2018-03-25T06:34:56.359Z,92.99
2018-03-25T06:35:56.333Z,92.61
2018-03-25T06:36:56.314Z,93.08
2018-03-25T06:37:56.293Z,93.41
2018-03-25T06:38:56.275Z,93.32
2018-03-25T06:39:56.259Z,93.32
2018-03-25T06:40:56.240Z,93.32
2018-03-25T06:41:56.221Z,93.23
2018-03-25T06:42:56.195Z,93.04
2018-03-25T06:43:56.176Z,93.13
2018-03-25T06:44:56.150Z,92.85
2018-03-25T06:45:56.140Z,92.75
2018-03-25T06:46:56.111Z,92.56
2018-03-25T06:47:56.099Z,92.75
2018-03-25T06:48:56.075Z,92.75
2018-03-25T06:49:56.052Z,92.94
2018-03-25T06:50:56.033Z,92.42
2018-03-25T06:51:56.009Z,92.42
2018-03-25T06:52:55.993Z,92.13
2018-03-25T06:53:55.971Z,92.32
2018-03-25T06:54:55.954Z,92.13
2018-03-25T06:55:55.930Z,91.09
2018-03-25T06:56:55.911Z,90.80
2018-03-25T06:57:55.890Z,91.28
2018-03-25T06:58:55.872Z,91.47
2018-03-25T06:59:55.848Z,91.28
2018-03-25T07:00:55.834Z,90.99
2018-03-25T07:01:55.863Z,91.19
2018-03-25T07:02:55.789Z,90.99
2018-03-25T07:03:55.774Z,91.09
2018-03-25T07:04:55.750Z,91.28
2018-03-25T07:05:55.730Z,90.61
2018-03-25T07:06:55.709Z,90.90
2018-03-25T07:07:55.690Z,90.99
2018-03-25T07:08:55.669Z,90.05
2018-03-25T07:09:55.649Z,89.76
2018-03-25T07:10:55.629Z,90.14
2018-03-25T07:11:55.612Z,90.05
2018-03-25T07:12:55.589Z,90.99
2018-03-25T07:13:55.571Z,91.19
2018-03-25T07:14:55.602Z,91.85
2018-03-25T07:15:55.531Z,91.56
2018-03-25T07:16:55.516Z,92.13
2018-03-25T07:17:55.492Z,92.42
2018-03-25T07:18:55.530Z,92.42
2018-03-25T07:19:55.454Z,92.42
2018-03-25T07:20:55.489Z,92.42
2018-03-25T07:21:55.412Z,92.32
2018-03-25T07:22:55.517Z,92.32
2018-03-25T07:23:55.380Z,91.94
2018-03-25T07:24:55.461Z,91.66
2018-03-25T07:25:55.331Z,91.56
2018-03-25T07:26:55.364Z,91.19
2018-03-25T07:27:55.293Z,91.09
2018-03-25T07:28:55.280Z,90.94
2018-03-25T07:29:55.262Z,90.23
2018-03-25T07:30:55.338Z,90.28
2018-03-25T07:31:55.222Z,89.90
2018-03-25T07:32:55.301Z,90.37
2018-03-25T07:33:55.183Z,90.37
2018-03-25T07:34:55.159Z,90.05
2018-03-25T07:35:55.137Z,90.99
2018-03-25T07:36:55.154Z,91.13
2018-03-25T07:37:55.102Z,90.71
2018-03-25T07:38:55.158Z,90.99
2018-03-25T07:39:55.063Z,91.47
2018-03-25T07:40:55.042Z,91.66
2018-03-25T07:41:55.018Z,91.56
2018-03-25T07:42:55.069Z,91.47
2018-03-25T07:43:54.980Z,91.85
2018-03-25T07:44:55.013Z,92.04
2018-03-25T07:45:54.946Z,91.28
2018-03-25T07:46:54.981Z,91.47
2018-03-25T07:47:54.909Z,91.28
2018-03-25T07:48:54.883Z,92.13
2018-03-25T07:49:54.950Z,91.56
2018-03-25T07:50:54.849Z,91.47
2018-03-25T07:51:54.836Z,91.66
2018-03-25T07:52:54.820Z,91.85
2018-03-25T07:53:54.802Z,91.80
2018-03-25T07:54:54.770Z,91.61
2018-03-25T07:55:54.759Z,91.13
2018-03-25T07:56:54.731Z,91.52
2018-03-25T07:57:54.715Z,90.94
2018-03-25T07:58:54.699Z,90.09
2018-03-25T07:59:54.685Z,90.47
2018-03-25T08:00:54.658Z,90.47
2018-03-25T08:01:54.640Z,90.56
2018-03-25T08:02:54.619Z,90.19
2018-03-25T08:03:54.662Z,90.37
2018-03-25T08:04:54.582Z,90.75
2018-03-25T08:05:54.560Z,90.94
2018-03-25T08:06:54.539Z,90.66
2018-03-25T08:07:54.525Z,91.04
2018-03-25T08:08:54.512Z,90.85
2018-03-25T08:09:54.480Z,90.66
2018-03-25T08:10:54.468Z,89.85
2018-03-25T08:11:54.449Z,89.85
2018-03-25T08:12:54.425Z,89.66
2018-03-25T08:13:54.410Z,89.56
2018-03-25T08:14:54.392Z,88.90
2018-03-25T08:15:54.371Z,88.90
2018-03-25T08:16:54.355Z,89.09
2018-03-25T08:17:54.339Z,88.90
2018-03-25T08:18:54.309Z,89.00
2018-03-25T08:19:54.290Z,87.95
2018-03-25T08:20:54.280Z,88.13
2018-03-25T08:21:54.253Z,87.57
2018-03-25T08:22:54.245Z,87.28
2018-03-25T08:23:54.219Z,87.47
2018-03-25T08:24:54.198Z,87.28
2018-03-25T08:25:54.184Z,88.52
2018-03-25T08:26:54.168Z,88.13
2018-03-25T08:27:54.174Z,88.13
2018-03-25T08:28:54.128Z,88.42
2018-03-25T08:29:54.111Z,88.13
2018-03-25T08:30:54.090Z,88.80
2018-03-25T08:31:54.071Z,88.75
2018-03-25T08:32:54.049Z,89.32
2018-03-25T08:33:54.036Z,88.28
2018-03-25T08:34:54.020Z,88.09
2018-03-25T08:35:53.997Z,87.52
2018-03-25T08:36:53.990Z,86.47
2018-03-25T08:37:53.956Z,86.09
2018-03-25T08:38:53.940Z,85.80
2018-03-25T08:39:53.921Z,85.90
2018-03-25T08:40:53.907Z,85.33
2018-03-25T08:41:53.879Z,85.33
2018-03-25T08:42:53.914Z,85.90
2018-03-25T08:43:53.846Z,85.61
2018-03-25T08:44:53.828Z,85.99
2018-03-25T08:45:53.809Z,86.28
2018-03-25T08:46:53.813Z,85.90
2018-03-25T08:47:53.782Z,85.61
2018-03-25T08:48:53.761Z,85.99
2018-03-25T08:49:53.731Z,85.99
2018-03-25T08:50:53.776Z,84.85
2018-03-25T08:51:53.695Z,85.47
2018-03-25T08:52:53.725Z,85.37
2018-03-25T08:53:53.660Z,84.52
2018-03-25T08:54:53.694Z,83.65
2018-03-25T08:55:53.624Z,84.52
2018-03-25T08:56:53.641Z,84.23
2018-03-25T08:57:53.589Z,85.75
2018-03-25T08:58:53.607Z,83.94
2018-03-25T08:59:53.559Z,84.52
2018-03-25T09:00:53.530Z,85.47
2018-03-25T09:01:53.519Z,84.80
2018-03-25T09:02:53.546Z,83.94
2018-03-25T09:03:53.483Z,84.04
2018-03-25T09:04:53.464Z,84.04
2018-03-25T09:05:53.444Z,83.65
2018-03-25T09:06:53.429Z,83.09
2018-03-25T09:07:53.402Z,83.28
2018-03-25T09:08:53.390Z,83.09
2018-03-25T09:09:53.370Z,81.98
2018-03-25T09:10:53.352Z,81.23
2018-03-25T09:11:53.333Z,80.94
2018-03-25T09:12:53.321Z,80.27
2018-03-25T09:13:53.301Z,80.94
2018-03-25T09:14:53.280Z,81.51
2018-03-25T09:15:53.260Z,81.51
2018-03-25T09:16:53.246Z,80.65
2018-03-25T09:17:53.230Z,80.55
2018-03-25T09:18:53.209Z,81.51
2018-03-25T09:19:53.188Z,81.23
2018-03-25T09:20:53.171Z,81.17
2018-03-25T09:21:53.150Z,80.36
2018-03-25T09:22:53.143Z,80.27
2018-03-25T09:23:53.121Z,80.08
2018-03-25T09:24:53.102Z,79.60
2018-03-25T09:25:53.089Z,80.75
2018-03-25T09:26:53.072Z,81.23
2018-03-25T09:27:53.054Z,82.84
2018-03-25T09:28:53.040Z,81.23
2018-03-25T09:29:53.022Z,81.32
2018-03-25T09:30:52.992Z,81.41
2018-03-25T09:31:52.990Z,83.03
2018-03-25T09:32:52.961Z,81.13
2018-03-25T09:33:52.949Z,80.08
2018-03-25T09:34:52.931Z,78.98
2018-03-25T09:35:52.913Z,78.69
2018-03-25T09:36:52.893Z,78.98
2018-03-25T09:37:52.886Z,79.46
2018-03-25T09:38:52.858Z,79.07
2018-03-25T09:39:52.841Z,79.17
2018-03-25T09:40:52.822Z,78.64
2018-03-25T09:41:52.808Z,78.25
2018-03-25T09:42:52.790Z,76.44
2018-03-25T09:43:52.768Z,75.96
2018-03-25T09:44:52.761Z,76.06
2018-03-25T09:45:52.774Z,76.50
2018-03-25T09:46:52.722Z,76.82
2018-03-25T09:47:52.703Z,77.20
2018-03-25T09:48:52.695Z,77.49
2018-03-25T09:49:52.670Z,76.35
2018-03-25T09:50:52.647Z,75.30
2018-03-25T09:51:52.630Z,74.82
2018-03-25T09:52:52.620Z,75.30
2018-03-25T09:53:52.598Z,76.44
2018-03-25T09:54:52.580Z,77.11
2018-03-25T09:55:52.621Z,76.98
2018-03-25T09:56:52.560Z,77.93
2018-03-25T09:57:52.529Z,79.93
2018-03-25T09:58:52.517Z,79.88
2018-03-25T09:59:52.501Z,78.06
2018-03-25T10:00:52.484Z,77.01
2018-03-25T10:01:52.470Z,78.35
2018-03-25T10:02:52.453Z,76.35
2018-03-25T10:03:52.501Z,74.06
2018-03-25T10:04:52.456Z,73.58
2018-03-25T10:05:52.400Z,74.63
2018-03-25T10:06:52.380Z,74.25
2018-03-25T10:07:52.360Z,75.11
2018-03-25T10:08:52.351Z,75.11
2018-03-25T10:09:52.332Z,75.59
2018-03-25T10:10:52.321Z,75.49
2018-03-25T10:11:52.292Z,75.59
2018-03-25T10:12:52.282Z,74.35
2018-03-25T10:13:52.259Z,74.73
2018-03-25T10:14:52.249Z,74.82
2018-03-25T10:15:52.229Z,74.38
2018-03-25T10:16:52.210Z,73.77
2018-03-25T10:17:52.197Z,73.14
2018-03-25T10:18:52.222Z,73.43
2018-03-25T10:19:52.161Z,75.24
2018-03-25T10:20:52.144Z,74.19
2018-03-25T10:21:52.134Z,73.52
2018-03-25T10:22:52.111Z,74.29
2018-03-25T10:23:52.094Z,72.67
2018-03-25T10:24:52.078Z,72.00
2018-03-25T10:25:52.059Z,72.32
2018-03-25T10:26:52.050Z,72.42
2018-03-25T10:27:52.029Z,71.27
2018-03-25T10:28:52.014Z,69.49
2018-03-25T10:29:52.000Z,67.30
2018-03-25T10:30:51.988Z,65.58
2018-03-25T10:31:51.981Z,66.63
2018-03-25T10:32:52.005Z,68.16
2018-03-25T10:33:51.950Z,68.63
2018-03-25T10:34:51.965Z,67.40
2018-03-25T10:35:51.909Z,65.42
2018-03-25T10:36:51.895Z,63.70
2018-03-25T10:37:51.882Z,64.02
2018-03-25T10:38:51.862Z,63.16
2018-03-25T10:39:51.852Z,60.96
2018-03-25T10:40:51.833Z,61.35
2018-03-25T10:41:51.812Z,60.33
2018-03-25T10:42:51.801Z,59.97
2018-03-25T10:43:51.788Z,58.34
2018-03-25T10:44:51.771Z,57.32
2018-03-25T10:45:51.760Z,55.98
2018-03-25T10:46:51.747Z,53.97
2018-03-25T10:47:51.727Z,54.33
2018-03-25T10:48:51.726Z,55.67
2018-03-25T10:49:51.702Z,57.10
2018-03-25T10:50:51.688Z,55.96
2018-03-25T10:51:51.682Z,55.86
2018-03-25T10:52:51.663Z,55.60
2018-03-25T10:53:51.644Z,55.02
2018-03-25T10:54:51.635Z,55.12
2018-03-25T10:55:51.621Z,54.07
2018-03-25T10:56:51.611Z,54.23
2018-03-25T10:57:51.611Z,54.80
2018-03-25T10:58:51.580Z,55.00
2018-03-25T10:59:51.569Z,55.00
2018-03-25T11:00:51.554Z,54.78
2018-03-25T11:01:51.547Z,55.35
2018-03-25T11:02:51.530Z,57.36
2018-03-25T11:03:51.523Z,57.17
2018-03-25T11:04:51.503Z,59.56
2018-03-25T11:05:51.489Z,57.68
2018-03-25T11:06:51.481Z,56.43
2018-03-25T11:07:51.461Z,56.34
2018-03-25T11:08:51.452Z,55.79
2018-03-25T11:09:51.434Z,54.45
2018-03-25T11:10:51.420Z,54.16
2018-03-25T11:11:51.410Z,55.02
2018-03-25T11:12:51.408Z,54.19
2018-03-25T11:13:51.381Z,52.95
2018-03-25T11:14:51.371Z,52.85
2018-03-25T11:15:51.373Z,52.75
2018-03-25T11:16:51.344Z,53.14
2018-03-25T11:17:51.329Z,53.07
2018-03-25T11:18:51.317Z,51.25
2018-03-25T11:19:51.310Z,50.79
2018-03-25T11:20:51.299Z,50.89
2018-03-25T11:21:51.288Z,49.07
2018-03-25T11:22:51.270Z,48.30
2018-03-25T11:23:51.259Z,48.13
2018-03-25T11:24:51.250Z,47.94
2018-03-25T11:25:51.242Z,48.13
2018-03-25T11:26:51.221Z,47.27
2018-03-25T11:27:51.213Z,46.70
2018-03-25T11:28:51.197Z,45.95
2018-03-25T11:29:51.238Z,45.76
2018-03-25T11:30:51.174Z,45.74
2018-03-25T11:31:51.230Z,46.70
2018-03-25T11:32:51.160Z,47.17
2018-03-25T11:33:51.141Z,48.61
2018-03-25T11:34:51.129Z,48.02
2018-03-25T11:35:51.114Z,47.53
2018-03-25T11:36:51.113Z,48.59
2018-03-25T11:37:51.091Z,48.13
2018-03-25T11:38:51.081Z,47.66
2018-03-25T11:39:51.072Z,46.43
2018-03-25T11:40:51.061Z,45.57
2018-03-25T11:41:51.053Z,45.37
2018-03-25T11:42:51.036Z,45.47
2018-03-25T11:43:51.026Z,45.37
2018-03-25T11:44:51.010Z,45.37
2018-03-25T11:45:51.007Z,45.59
2018-03-25T11:46:50.992Z,45.50
2018-03-25T11:47:50.980Z,43.77
2018-03-25T11:48:50.974Z,43.65
2018-03-25T11:49:50.956Z,43.55
2018-03-25T11:50:50.950Z,43.82
2018-03-25T11:51:50.933Z,43.73
2018-03-25T11:52:50.922Z,44.01
2018-03-25T11:53:50.916Z,44.20
2018-03-25T11:54:50.906Z,43.34
2018-03-25T11:55:50.886Z,42.69
2018-03-25T11:56:50.880Z,43.34
2018-03-25T11:57:50.863Z,43.41
2018-03-25T11:58:50.856Z,44.18
2018-03-25T11:59:50.839Z,43.99
2018-03-25T12:00:50.831Z,44.09
2018-03-25T12:01:50.821Z,44.95
2018-03-25T12:02:50.811Z,45.43
2018-03-25T12:03:50.793Z,43.59
2018-03-25T12:04:50.791Z,42.44
2018-03-25T12:05:50.773Z,43.59
2018-03-25T12:06:50.772Z,43.60
2018-03-25T12:07:50.746Z,43.32
2018-03-25T12:08:50.743Z,42.38
2018-03-25T12:09:50.724Z,41.52
2018-03-25T12:10:50.713Z,42.02
2018-03-25T12:11:50.709Z,40.99
2018-03-25T12:12:50.691Z,39.35
2018-03-25T12:13:50.677Z,39.08
2018-03-25T12:14:50.671Z,38.43
2018-03-25T12:15:50.664Z,38.43
2018-03-25T12:16:50.670Z,39.31
2018-03-25T12:17:50.645Z,38.89
2018-03-25T12:18:50.694Z,39.83
2018-03-25T12:19:50.611Z,40.99
2018-03-25T12:20:50.608Z,40.67
2018-03-25T12:21:50.592Z,41.37
2018-03-25T12:22:50.586Z,41.71
2018-03-25T12:23:50.569Z,42.10
2018-03-25T12:24:50.703Z,41.50
2018-03-25T12:25:50.546Z,42.53
2018-03-25T12:26:50.645Z,43.59
2018-03-25T12:27:50.524Z,42.82
2018-03-25T12:28:50.515Z,43.90
2018-03-25T12:29:50.502Z,44.18
2018-03-25T12:30:50.492Z,43.99
2018-03-25T12:31:50.483Z,43.90
2018-03-25T12:32:50.466Z,43.87
2018-03-25T12:33:50.452Z,44.23
2018-03-25T12:34:50.446Z,45.09
2018-03-25T12:35:50.443Z,44.64
2018-03-25T12:36:50.425Z,44.09
2018-03-25T12:37:50.410Z,43.80
2018-03-25T12:38:50.391Z,44.97
2018-03-25T12:39:50.389Z,43.60
2018-03-25T12:40:50.374Z,42.36
2018-03-25T12:41:50.360Z,42.86
2018-03-25T12:42:50.360Z,42.74
2018-03-25T12:43:50.345Z,41.97
2018-03-25T12:44:50.326Z,42.65
2018-03-25T12:45:50.310Z,42.74
2018-03-25T12:46:50.296Z,43.41
2018-03-25T12:47:50.282Z,43.59
2018-03-25T12:48:50.269Z,44.16
2018-03-25T12:49:50.324Z,45.86
2018-03-25T12:50:50.248Z,45.57
2018-03-25T12:51:50.232Z,46.12